createdAt,value
2023-02-26T00:12:40.025Z,-0.92
2023-02-26T00:26:51.668Z,-0.86
2023-02-26T00:41:01.517Z,-0.96
2023-02-26T00:55:13.259Z,-0.78
2023-02-26T00:58:34.953Z,-0.76
2023-02-26T01:09:23.600Z,-0.67
2023-02-26T01:17:32.710Z,-0.63
2023-02-26T01:27:04.093Z,-0.59
2023-02-26T01:36:33.969Z,-0.54
2023-02-26T01:46:04.959Z,-0.50
2023-02-26T01:55:33.335Z,-0.48
2023-02-26T02:05:04.038Z,-0.43
2023-02-26T02:14:30.479Z,-0.29
2023-02-26T02:24:03.445Z,-0.15
2023-02-26T02:33:33.594Z,-0.17
2023-02-26T02:34:28.902Z,-0.18
2023-02-26T02:48:39.664Z,-0.28
2023-02-26T03:02:50.576Z,0
2023-02-26T03:17:02.839Z,0.26
2023-02-26T03:20:55.208Z,0.27
2023-02-26T03:31:14.824Z,0.09
2023-02-26T03:45:25.562Z,-0.49
2023-02-26T03:59:35.161Z,-1.08
2023-02-26T04:13:45.482Z,-1.43
2023-02-26T04:27:55.317Z,-1.73
2023-02-26T04:42:06.177Z,-1.98
2023-02-26T04:56:16.282Z,-2.2
2023-02-26T05:10:25.980Z,-2.13
2023-02-26T05:24:36.625Z,-2.27
2023-02-26T05:38:47.624Z,-2.43
2023-02-26T05:52:58.570Z,-2.44
2023-02-26T06:21:19.987Z,-2.42
2023-02-26T06:35:30.589Z,-2.33
2023-02-26T06:49:40.708Z,-2.31
2023-02-26T07:03:51.414Z,-2.21
2023-02-26T07:18:02.553Z,-2.01
2023-02-26T07:32:13.452Z,-1.94
2023-02-26T07:46:23.714Z,-1.68
2023-02-26T08:00:35.404Z,-1.33
2023-02-26T08:14:46.991Z,-0.86
2023-02-26T08:29:00.725Z,-0.12
2023-02-26T08:35:08.748Z,0.35
2023-02-26T08:43:14.923Z,0.39
2023-02-26T08:44:44.607Z,0.77
2023-02-26T08:54:16.474Z,1.01
2023-02-26T09:03:50.664Z,1.38
2023-02-26T09:13:25.560Z,1.79
2023-02-26T09:22:57.565Z,1.98
2023-02-26T09:32:32.989Z,1.87
2023-02-26T09:33:35.337Z,1.91
2023-02-26T09:43:07.023Z,1.64
2023-02-26T09:44:09.574Z,1.70
2023-02-26T09:45:11.983Z,1.80
2023-02-26T09:54:45.700Z,2.27
2023-02-26T09:55:48.098Z,2.35
2023-02-26T09:56:51.617Z,2.42
2023-02-26T09:57:54.089Z,2.48
2023-02-26T10:08:28.651Z,2.50
2023-02-26T10:09:32.629Z,2.53
2023-02-26T10:11:38.695Z,2.56
2023-02-26T10:12:41.064Z,2.59
2023-02-26T10:13:56.396Z,2.63
2023-02-26T10:14:47.664Z,2.62
2023-02-26T10:15:50.114Z,2.57
2023-02-26T10:16:55.565Z,2.64
2023-02-26T10:17:59.733Z,2.70
2023-02-26T10:19:01.877Z,2.72
2023-02-26T10:21:08.060Z,2.66
2023-02-26T10:30:38.158Z,2.50
2023-02-26T10:32:46.140Z,2.60
2023-02-26T10:33:48.569Z,2.64
2023-02-26T10:35:55.086Z,2.68
2023-02-26T10:36:59.189Z,2.65
2023-02-26T10:38:01.395Z,2.62
2023-02-26T10:40:07.628Z,2.66
2023-02-26T10:41:19.692Z,2.65
2023-02-26T10:42:21.614Z,2.71
2023-02-26T10:43:25.426Z,2.80
2023-02-26T10:44:27.713Z,2.85
2023-02-26T10:45:30.094Z,2.88
2023-02-26T10:47:36.472Z,2.89
2023-02-26T10:48:38.757Z,2.94
2023-02-26T10:49:41.233Z,2.89
2023-02-26T10:50:43.543Z,2.88
2023-02-26T10:51:45.934Z,2.89
2023-02-26T10:52:48.338Z,2.90
2023-02-26T10:53:52.389Z,2.94
2023-02-26T10:54:56.205Z,2.95
2023-02-26T10:56:00.044Z,2.94
2023-02-26T10:57:02.274Z,3.00
2023-02-26T10:58:04.951Z,3.04
2023-02-26T10:59:09.062Z,3.10
2023-02-26T11:00:13.029Z,3.16
2023-02-26T11:01:17.121Z,3.19
2023-02-26T11:02:19.321Z,3.21
2023-02-26T11:03:21.685Z,3.28
2023-02-26T11:04:24.047Z,3.33
2023-02-26T11:05:26.440Z,3.30
2023-02-26T11:06:28.912Z,3.32
2023-02-26T11:07:32.350Z,3.33
2023-02-26T11:08:33.603Z,3.37
2023-02-26T11:09:36.022Z,3.42
2023-02-26T11:10:38.324Z,3.43
2023-02-26T11:11:41.109Z,3.44
2023-02-26T11:12:44.998Z,3.48
2023-02-26T11:14:49.681Z,3.51
2023-02-26T11:15:53.633Z,3.55
2023-02-26T11:16:55.987Z,3.57
2023-02-26T11:17:59.885Z,3.65
2023-02-26T11:19:03.743Z,3.67
2023-02-26T11:20:05.975Z,3.71
2023-02-26T11:21:08.775Z,3.76
2023-02-26T11:22:13.004Z,3.82
2023-02-26T11:23:16.762Z,3.86
2023-02-26T11:24:19.043Z,3.88
2023-02-26T11:25:21.380Z,3.90
2023-02-26T11:26:23.716Z,3.92
2023-02-26T11:27:26.132Z,3.91
2023-02-26T11:28:28.626Z,3.84
2023-02-26T11:29:31.274Z,3.88
2023-02-26T11:30:33.598Z,3.95
2023-02-26T11:31:36.137Z,4.04
2023-02-26T11:32:38.422Z,4.07
2023-02-26T11:33:41.092Z,4.12
2023-02-26T11:34:45.592Z,4.20
2023-02-26T11:35:47.738Z,4.21
2023-02-26T11:36:50.149Z,4.20
2023-02-26T11:37:54.383Z,4.23
2023-02-26T11:38:56.592Z,4.25
2023-02-26T11:40:00.615Z,4.30
2023-02-26T11:41:02.815Z,4.35
2023-02-26T11:43:10.736Z,4.41
2023-02-26T11:44:13.357Z,4.40
2023-02-26T11:45:15.714Z,4.44
2023-02-26T11:46:18.150Z,4.42
2023-02-26T11:47:20.475Z,4.47
2023-02-26T11:48:24.590Z,4.46
2023-02-26T11:49:26.825Z,4.53
2023-02-26T11:50:29.513Z,4.57
2023-02-26T11:51:33.462Z,4.62
2023-02-26T11:52:35.766Z,4.68
2023-02-26T11:53:38.039Z,4.61
2023-02-26T11:54:40.490Z,4.63
2023-02-26T11:55:42.864Z,4.66
2023-02-26T11:56:45.423Z,4.63
2023-02-26T11:57:47.804Z,4.68
2023-02-26T11:58:52.888Z,4.56
2023-02-26T11:59:54.045Z,4.62
2023-02-26T12:00:56.441Z,4.61
2023-02-26T12:01:58.806Z,4.66
2023-02-26T12:03:01.323Z,4.61
2023-02-26T12:04:03.740Z,4.65
2023-02-26T12:05:06.042Z,4.64
2023-02-26T12:07:10.815Z,4.56
2023-02-26T12:08:14.844Z,4.43
2023-02-26T12:09:17.098Z,4.34
2023-02-26T12:10:19.408Z,4.33
2023-02-26T12:12:25.716Z,4.20
2023-02-26T12:14:30.492Z,4.17
2023-02-26T12:15:32.887Z,4.14
2023-02-26T12:16:35.242Z,4.19
2023-02-26T12:17:37.571Z,4.20
2023-02-26T12:18:41.545Z,4.19
2023-02-26T12:19:43.831Z,4.13
2023-02-26T12:20:46.220Z,4.14
2023-02-26T12:21:48.567Z,4.07
2023-02-26T12:23:54.752Z,4.10
2023-02-26T12:24:57.191Z,4.18
2023-02-26T12:25:59.614Z,4.24
2023-02-26T12:27:02.072Z,4.25
2023-02-26T12:28:04.452Z,4.37
2023-02-26T12:29:09.494Z,4.30
2023-02-26T12:30:13.222Z,4.40
2023-02-26T12:31:15.555Z,4.51
2023-02-26T12:32:17.937Z,4.64
2023-02-26T12:33:21.850Z,4.76
2023-02-26T12:34:25.747Z,4.80
2023-02-26T12:35:28.008Z,4.74
2023-02-26T12:36:46.615Z,4.82
2023-02-26T12:37:34.368Z,4.85
2023-02-26T12:38:36.774Z,4.92
2023-02-26T12:39:39.163Z,4.89
2023-02-26T12:40:41.529Z,4.97
2023-02-26T12:41:45.472Z,5.01
2023-02-26T12:42:47.764Z,5.02
2023-02-26T12:43:51.776Z,5.06
2023-02-26T12:44:54.112Z,5.04
2023-02-26T12:45:56.526Z,4.98
2023-02-26T12:47:00.547Z,4.99
2023-02-26T12:48:02.720Z,4.98
2023-02-26T12:49:05.095Z,4.99
2023-02-26T12:50:07.529Z,4.94
2023-02-26T12:51:10.001Z,5.02
2023-02-26T12:52:12.311Z,5.06
2023-02-26T12:53:14.714Z,5.07
2023-02-26T12:54:17.081Z,5.05
2023-02-26T12:55:21.073Z,4.97
2023-02-26T12:56:23.321Z,4.91
2023-02-26T12:57:25.701Z,4.94
2023-02-26T13:00:35.828Z,4.82
2023-02-26T13:01:38.169Z,4.80
2023-02-26T13:02:40.527Z,4.72
2023-02-26T13:04:46.913Z,4.68
2023-02-26T13:05:49.193Z,4.62
2023-02-26T13:06:51.456Z,4.63
2023-02-26T13:07:55.412Z,4.56
2023-02-26T13:08:57.717Z,4.51
2023-02-26T13:11:03.948Z,4.48
2023-02-26T13:12:06.445Z,4.52
2023-02-26T13:13:08.751Z,4.54
2023-02-26T13:14:11.171Z,4.56
2023-02-26T13:15:13.612Z,4.59
2023-02-26T13:18:21.639Z,4.56
2023-02-26T13:19:26.094Z,4.54
2023-02-26T13:20:27.933Z,4.52
2023-02-26T13:21:30.344Z,4.53
2023-02-26T13:22:32.674Z,4.52
2023-02-26T13:23:35.124Z,4.53
2023-02-26T13:24:37.561Z,4.46
2023-02-26T13:25:39.964Z,4.40
2023-02-26T13:26:42.396Z,4.39
2023-02-26T13:28:48.618Z,4.34
2023-02-26T13:29:51.006Z,4.33
2023-02-26T13:31:56.028Z,4.32
2023-02-26T13:32:59.952Z,4.34
2023-02-26T13:34:03.653Z,4.29
2023-02-26T13:35:05.907Z,4.27
2023-02-26T13:36:08.348Z,4.26
2023-02-26T13:37:10.669Z,4.27
2023-02-26T13:38:13.039Z,4.25
2023-02-26T13:39:15.448Z,4.28
2023-02-26T13:40:17.893Z,4.30
2023-02-26T13:41:20.265Z,4.33
2023-02-26T13:42:22.650Z,4.37
2023-02-26T13:43:25.074Z,4.39
2023-02-26T13:44:27.415Z,4.35
2023-02-26T13:45:31.471Z,4.39
2023-02-26T13:46:33.749Z,4.41
2023-02-26T13:47:36.179Z,4.45
2023-02-26T13:48:38.507Z,4.48
2023-02-26T13:49:40.913Z,4.50
2023-02-26T13:50:43.349Z,4.52
2023-02-26T13:51:45.771Z,4.51
2023-02-26T13:52:48.178Z,4.55
2023-02-26T13:53:50.580Z,4.59
2023-02-26T13:54:52.933Z,4.62
2023-02-26T13:55:56.940Z,4.63
2023-02-26T13:56:59.250Z,4.65
2023-02-26T13:58:01.646Z,4.66
2023-02-26T13:59:05.685Z,4.71
2023-02-26T14:00:07.928Z,4.73
2023-02-26T14:01:12.099Z,4.75
2023-02-26T14:02:14.189Z,4.76
2023-02-26T14:03:18.197Z,4.78
2023-02-26T14:04:22.149Z,4.76
2023-02-26T14:05:25.946Z,4.72
2023-02-26T14:06:28.188Z,4.67
2023-02-26T14:07:30.587Z,4.71
2023-02-26T14:08:32.958Z,4.70
2023-02-26T14:10:39.374Z,4.64
2023-02-26T14:11:43.245Z,4.56
2023-02-26T14:12:45.460Z,4.58
2023-02-26T14:13:47.851Z,4.53
2023-02-26T14:15:52.686Z,4.58
2023-02-26T14:16:55.145Z,4.60
2023-02-26T14:18:00.754Z,4.57
2023-02-26T14:19:01.251Z,4.56
2023-02-26T14:20:03.631Z,4.57
2023-02-26T14:21:06.043Z,4.56
2023-02-26T14:22:08.430Z,4.57
2023-02-26T14:23:10.838Z,4.54
2023-02-26T14:24:13.260Z,4.48
2023-02-26T14:25:15.581Z,4.44
2023-02-26T14:26:19.560Z,4.39
2023-02-26T14:27:21.798Z,4.35
2023-02-26T14:30:29.052Z,4.32
2023-02-26T14:31:31.815Z,4.30
2023-02-26T14:32:33.785Z,4.25
2023-02-26T14:33:36.095Z,4.26
2023-02-26T14:34:40.071Z,4.28
2023-02-26T14:35:42.337Z,4.26
2023-02-26T14:36:44.674Z,4.28
2023-02-26T14:37:47.098Z,4.31
2023-02-26T14:38:49.457Z,4.28
2023-02-26T14:39:52.064Z,4.27
2023-02-26T14:40:54.666Z,4.30
2023-02-26T14:41:57.118Z,4.34
2023-02-26T14:42:59.764Z,4.38
2023-02-26T14:44:08.277Z,4.44
2023-02-26T14:45:12.000Z,4.51
2023-02-26T14:46:14.310Z,4.54
2023-02-26T14:48:20.606Z,4.51
2023-02-26T14:49:22.967Z,4.57
2023-02-26T14:50:26.873Z,4.62
2023-02-26T14:51:30.716Z,4.66
2023-02-26T14:52:33.000Z,4.67
2023-02-26T14:53:35.444Z,4.75
2023-02-26T14:54:37.852Z,4.79
2023-02-26T14:56:44.133Z,4.77
2023-02-26T14:58:48.914Z,4.70
2023-02-26T14:59:51.346Z,4.72
2023-02-26T15:00:53.710Z,4.74
2023-02-26T15:02:58.472Z,4.73
2023-02-26T15:04:01.034Z,4.74
2023-02-26T15:06:05.866Z,4.72
2023-02-26T15:07:08.100Z,4.65
2023-02-26T15:08:10.517Z,4.63
2023-02-26T15:09:12.896Z,4.64
2023-02-26T15:10:15.336Z,4.59
2023-02-26T15:11:17.719Z,4.61
2023-02-26T15:12:21.692Z,4.59
2023-02-26T15:13:25.651Z,4.57
2023-02-26T15:14:28.019Z,4.56
2023-02-26T15:15:30.404Z,4.52
2023-02-26T15:16:32.754Z,4.53
2023-02-26T15:18:37.598Z,4.54
2023-02-26T15:19:39.897Z,4.59
2023-02-26T15:20:42.275Z,4.70
2023-02-26T15:21:46.382Z,4.58
2023-02-26T15:22:48.631Z,4.62
2023-02-26T15:23:50.987Z,4.67
2023-02-26T15:24:53.466Z,4.58
2023-02-26T15:25:55.852Z,4.48
2023-02-26T15:26:58.183Z,4.52
2023-02-26T15:28:00.553Z,4.79
2023-02-26T15:29:03.005Z,4.81
2023-02-26T15:34:15.816Z,4.78
2023-02-26T15:35:18.447Z,4.71
2023-02-26T15:36:22.685Z,4.68
2023-02-26T15:37:25.221Z,4.67
2023-02-26T15:38:29.672Z,4.54
2023-02-26T15:39:32.138Z,4.52
2023-02-26T15:40:34.662Z,4.43
2023-02-26T15:41:38.980Z,4.32
2023-02-26T15:42:41.449Z,4.33
2023-02-26T15:43:44.098Z,4.17
2023-02-26T15:44:56.694Z,4.12
2023-02-26T15:45:52.453Z,4.05
2023-02-26T15:46:54.955Z,3.99
2023-02-26T15:47:57.608Z,3.98
2023-02-26T15:58:31.223Z,3.77
2023-02-26T15:59:33.964Z,4.08
2023-02-26T16:00:36.575Z,4.19
2023-02-26T16:03:07.067Z,3.8
2023-02-26T16:17:17.523Z,3.69
2023-02-26T16:24:41.536Z,3.65
2023-02-26T16:25:43.632Z,3.63
2023-02-26T16:26:45.853Z,3.61
2023-02-26T16:27:49.785Z,3.54
2023-02-26T16:29:55.734Z,3.48
2023-02-26T16:30:59.580Z,3.47
2023-02-26T16:31:27.473Z,3.05
2023-02-26T16:45:38.875Z,2.78
2023-02-26T16:55:06.601Z,2.52
2023-02-26T16:56:08.957Z,2.50
2023-02-26T16:57:12.950Z,2.48
2023-02-26T16:59:47.690Z,1.89
2023-02-26T17:13:58.221Z,1.11
2023-02-26T17:28:04.815Z,0.63
2023-02-26T17:42:13.380Z,0.43
2023-02-26T17:56:25.979Z,0.26
2023-02-26T18:10:36.714Z,0.36
2023-02-26T18:24:46.083Z,0.28
2023-02-26T18:38:59.456Z,0.55
2023-02-26T18:53:09.170Z,0.51
2023-02-26T19:07:20.282Z,0.55
2023-02-26T19:21:30.233Z,0.9
2023-02-26T19:35:43.205Z,1.15
2023-02-26T19:49:52.237Z,1.25
2023-02-26T20:04:04.093Z,1.34
2023-02-26T20:18:14.637Z,1.13
2023-02-26T20:32:24.576Z,0.77
2023-02-26T20:46:35.202Z,0.58
2023-02-26T21:00:44.854Z,0.11
2023-02-26T21:14:55.302Z,-0.2
2023-02-26T21:29:06.002Z,-0.61
2023-02-26T21:43:15.745Z,-0.82
2023-02-26T21:57:26.553Z,-1.01
2023-02-26T22:11:36.646Z,-1.16
2023-02-26T22:25:46.888Z,-1.22
2023-02-26T22:39:58.098Z,-1.37
2023-02-26T22:54:08.452Z,-1.47
2023-02-26T23:08:18.250Z,-1.56
2023-02-26T23:22:30.155Z,-1.67
2023-02-26T23:36:39.196Z,-1.8
2023-02-26T23:50:48.289Z,-1.95
